Pancevo, Serbia
Current Conditions -  °F | °C
As of 4:30 PM on Thursday 29 Jan 2015 (Local Time) from LYBE Reporting Station
Clear Clear  
Wind Chill: 42°   Ceiling: Unl
Heat Index: 45°   Visibility: 6mi
Dew Point: 34°   Wind: 5mph
Humidity: 66%   Direction: 330°NNW
Pressure: 29.59"   Gusts: NA
Location:  44.87°N, 20.66°E
Report Text: LYBE 291430Z 33004KT CAVOK 07/01 Q1002 NOSIG
Loading
Personal Weather Stations






























Interactive Weather Map New forecast layout! Learn more

10-Day Weather Forecast

Advertisements
Track Severe Weather on mobile